sensor_id;sensor_type;location;lat;lon;timestamp;P1;durP1;ratioP1;P2;durP2;ratioP2
79019;SDS011;72857;44.740;37.770;2024-01-15T00:00:21;4.75;;;2.10;;
79019;SDS011;72857;44.740;37.770;2024-01-15T00:01:23;5.32;;;2.35;;
79019;SDS011;72857;44.740;37.770;2024-01-15T00:02:24;5.10;;;2.15;;
79019;SDS011;72857;44.740;37.770;2024-01-15T00:03:26;9.25;;;2.63;;
79019;SDS011;72857;44.740;37.770;2024-01-15T00:04:27;6.85;;;2.10;;
79019;SDS011;72857;44.740;37.770;2024-01-15T00:05:29;6.20;;;2.45;;
79019;SDS011;72857;44.740;37.770;2024-01-15T00:06:30;6.38;;;2.17;;
79019;SDS011;72857;44.740;37.770;2024-01-15T00:07:33;6.45;;;1.92;;
79019;SDS011;72857;44.740;37.770;2024-01-15T00:08:35;9.20;;;2.78;;
79019;SDS011;72857;44.740;37.770;2024-01-15T00:09:37;6.75;;;2.42;;
79019;SDS011;72857;44.740;37.770;2024-01-15T00:10:39;8.32;;;2.05;;
79019;SDS011;72857;44.740;37.770;2024-01-15T00:11:43;6.13;;;2.28;;
79019;SDS011;72857;44.740;37.770;2024-01-15T00:12:44;7.07;;;2.45;;
79019;SDS011;72857;44.740;37.770;2024-01-15T00:13:46;6.88;;;2.30;;
79019;SDS011;72857;44.740;37.770;2024-01-15T00:14:47;6.10;;;2.50;;
79019;SDS011;72857;44.740;37.770;2024-01-15T00:15:49;5.72;;;2.05;;
79019;SDS011;72857;44.740;37.770;2024-01-15T00:16:50;6.85;;;2.40;;
79019;SDS011;72857;44.740;37.770;2024-01-15T00:17:52;8.73;;;2.30;;
79019;SDS011;72857;44.740;37.770;2024-01-15T00:18:53;7.10;;;2.25;;
79019;SDS011;72857;44.740;37.770;2024-01-15T00:19:55;6.72;;;2.50;;
79019;SDS011;72857;44.740;37.770;2024-01-15T00:20:56;5.95;;;2.40;;
79019;SDS011;72857;44.740;37.770;2024-01-15T00:21:58;7.50;;;2.35;;
79019;SDS011;72857;44.740;37.770;2024-01-15T00:23:00;7.40;;;3.50;;
79019;SDS011;72857;44.740;37.770;2024-01-15T00:24:01;9.43;;;2.50;;
79019;SDS011;72857;44.740;37.770;2024-01-15T00:25:03;6.03;;;2.47;;
79019;SDS011;72857;44.740;37.770;2024-01-15T00:26:05;8.18;;;2.70;;
79019;SDS011;72857;44.740;37.770;2024-01-15T00:27:06;7.40;;;2.85;;
79019;SDS011;72857;44.740;37.770;2024-01-15T00:28:08;9.10;;;2.85;;
79019;SDS011;72857;44.740;37.770;2024-01-15T00:29:09;6.35;;;2.10;;
79019;SDS011;72857;44.740;37.770;2024-01-15T00:30:11;5.90;;;2.70;;
79019;SDS011;72857;44.740;37.770;2024-01-15T00:31:13;8.77;;;2.80;;
79019;SDS011;72857;44.740;37.770;2024-01-15T00:32:17;5.50;;;2.25;;
79019;SDS011;72857;44.740;37.770;2024-01-15T00:33:19;7.88;;;2.30;;
79019;SDS011;72857;44.740;37.770;2024-01-15T00:34:21;7.07;;;3.10;;
79019;SDS011;72857;44.740;37.770;2024-01-15T00:35:22;8.68;;;2.75;;
79019;SDS011;72857;44.740;37.770;2024-01-15T00:36:24;7.80;;;2.80;;
79019;SDS011;72857;44.740;37.770;2024-01-15T00:37:44;7.03;;;2.58;;
79019;SDS011;72857;44.740;37.770;2024-01-15T00:39:05;15.20;;;2.88;;
79019;SDS011;72857;44.740;37.770;2024-01-15T00:40:06;7.43;;;2.75;;
79019;SDS011;72857;44.740;37.770;2024-01-15T00:41:09;9.30;;;2.72;;
79019;SDS011;72857;44.740;37.770;2024-01-15T00:42:10;9.30;;;2.50;;
79019;SDS011;72857;44.740;37.770;2024-01-15T00:43:12;5.13;;;2.28;;
79019;SDS011;72857;44.740;37.770;2024-01-15T00:44:14;9.52;;;2.55;;
79019;SDS011;72857;44.740;37.770;2024-01-15T00:45:15;8.02;;;2.40;;
79019;SDS011;72857;44.740;37.770;2024-01-15T00:46:17;7.07;;;2.20;;
79019;SDS011;72857;44.740;37.770;2024-01-15T00:47:19;8.13;;;3.05;;
79019;SDS011;72857;44.740;37.770;2024-01-15T00:48:21;7.55;;;2.28;;
79019;SDS011;72857;44.740;37.770;2024-01-15T00:49:22;6.07;;;2.70;;
79019;SDS011;72857;44.740;37.770;2024-01-15T00:50:25;10.05;;;2.28;;
79019;SDS011;72857;44.740;37.770;2024-01-15T00:51:31;9.68;;;2.17;;
79019;SDS011;72857;44.740;37.770;2024-01-15T00:52:32;5.88;;;2.20;;
79019;SDS011;72857;44.740;37.770;2024-01-15T00:53:34;13.25;;;2.40;;
79019;SDS011;72857;44.740;37.770;2024-01-15T00:54:36;6.88;;;2.22;;
79019;SDS011;72857;44.740;37.770;2024-01-15T00:55:38;9.80;;;2.80;;
79019;SDS011;72857;44.740;37.770;2024-01-15T00:56:40;8.85;;;2.30;;
79019;SDS011;72857;44.740;37.770;2024-01-15T00:59:02;7.38;;;2.80;;
79019;SDS011;72857;44.740;37.770;2024-01-15T01:00:22;8.23;;;2.30;;
79019;SDS011;72857;44.740;37.770;2024-01-15T01:01:24;9.90;;;3.13;;
79019;SDS011;72857;44.740;37.770;2024-01-15T01:02:26;8.20;;;2.67;;
79019;SDS011;72857;44.740;37.770;2024-01-15T01:03:27;8.65;;;2.83;;
79019;SDS011;72857;44.740;37.770;2024-01-15T01:04:29;9.70;;;2.47;;
79019;SDS011;72857;44.740;37.770;2024-01-15T01:05:49;5.72;;;2.22;;
79019;SDS011;72857;44.740;37.770;2024-01-15T01:06:52;7.45;;;2.58;;
79019;SDS011;72857;44.740;37.770;2024-01-15T01:07:54;7.07;;;2.42;;
79019;SDS011;72857;44.740;37.770;2024-01-15T01:08:55;6.85;;;2.25;;
79019;SDS011;72857;44.740;37.770;2024-01-15T01:10:15;7.00;;;2.40;;
79019;SDS011;72857;44.740;37.770;2024-01-15T01:11:36;8.27;;;2.38;;
79019;SDS011;72857;44.740;37.770;2024-01-15T01:12:37;6.75;;;2.40;;
79019;SDS011;72857;44.740;37.770;2024-01-15T01:13:39;9.60;;;2.63;;
79019;SDS011;72857;44.740;37.770;2024-01-15T01:14:41;6.28;;;2.10;;
79019;SDS011;72857;44.740;37.770;2024-01-15T01:15:42;7.45;;;2.42;;
79019;SDS011;72857;44.740;37.770;2024-01-15T01:16:44;5.38;;;2.22;;
79019;SDS011;72857;44.740;37.770;2024-01-15T01:17:46;4.60;;;2.20;;
79019;SDS011;72857;44.740;37.770;2024-01-15T01:20:08;7.43;;;1.90;;
79019;SDS011;72857;44.740;37.770;2024-01-15T01:21:11;6.50;;;2.35;;
79019;SDS011;72857;44.740;37.770;2024-01-15T01:22:13;6.95;;;1.92;;
79019;SDS011;72857;44.740;37.770;2024-01-15T01:23:14;6.35;;;2.30;;
79019;SDS011;72857;44.740;37.770;2024-01-15T01:24:34;6.28;;;2.13;;
79019;SDS011;72857;44.740;37.770;2024-01-15T01:25:36;6.70;;;2.08;;
79019;SDS011;72857;44.740;37.770;2024-01-15T01:26:38;4.05;;;1.73;;
79019;SDS011;72857;44.740;37.770;2024-01-15T01:27:39;5.78;;;2.20;;
79019;SDS011;72857;44.740;37.770;2024-01-15T01:30:01;4.25;;;1.90;;
79019;SDS011;72857;44.740;37.770;2024-01-15T01:31:21;6.70;;;1.95;;
79019;SDS011;72857;44.740;37.770;2024-01-15T01:32:24;4.75;;;1.73;;
79019;SDS011;72857;44.740;37.770;2024-01-15T01:33:26;4.53;;;1.80;;
79019;SDS011;72857;44.740;37.770;2024-01-15T01:34:46;5.30;;;1.92;;
79019;SDS011;72857;44.740;37.770;2024-01-15T01:35:47;6.20;;;2.28;;
79019;SDS011;72857;44.740;37.770;2024-01-15T01:36:49;5.38;;;2.03;;
79019;SDS011;72857;44.740;37.770;2024-01-15T01:38:09;5.28;;;1.67;;
79019;SDS011;72857;44.740;37.770;2024-01-15T01:39:11;5.70;;;1.90;;
79019;SDS011;72857;44.740;37.770;2024-01-15T01:42:09;4.60;;;1.58;;
79019;SDS011;72857;44.740;37.770;2024-01-15T01:43:12;7.68;;;1.90;;
79019;SDS011;72857;44.740;37.770;2024-01-15T01:44:13;3.78;;;1.35;;
79019;SDS011;72857;44.740;37.770;2024-01-15T01:45:15;4.80;;;1.65;;
79019;SDS011;72857;44.740;37.770;2024-01-15T01:46:17;6.07;;;1.98;;
79019;SDS011;72857;44.740;37.770;2024-01-15T01:47:18;5.35;;;1.60;;
79019;SDS011;72857;44.740;37.770;2024-01-15T01:48:20;3.95;;;1.92;;
79019;SDS011;72857;44.740;37.770;2024-01-15T01:49:22;5.93;;;1.80;;
79019;SDS011;72857;44.740;37.770;2024-01-15T01:50:44;4.82;;;1.75;;
79019;SDS011;72857;44.740;37.770;2024-01-15T01:51:46;3.85;;;1.83;;
79019;SDS011;72857;44.740;37.770;2024-01-15T01:52:48;4.45;;;2.03;;
79019;SDS011;72857;44.740;37.770;2024-01-15T01:53:50;7.70;;;2.00;;
79019;SDS011;72857;44.740;37.770;2024-01-15T01:54:52;5.78;;;2.20;;
79019;SDS011;72857;44.740;37.770;2024-01-15T01:56:13;5.32;;;2.22;;
79019;SDS011;72857;44.740;37.770;2024-01-15T01:57:15;6.55;;;2.38;;
79019;SDS011;72857;44.740;37.770;2024-01-15T01:58:19;3.88;;;1.65;;
79019;SDS011;72857;44.740;37.770;2024-01-15T01:59:21;5.35;;;1.95;;
79019;SDS011;72857;44.740;37.770;2024-01-15T02:00:24;4.75;;;1.55;;
79019;SDS011;72857;44.740;37.770;2024-01-15T02:01:26;5.55;;;1.85;;
79019;SDS011;72857;44.740;37.770;2024-01-15T02:02:46;6.45;;;2.10;;
79019;SDS011;72857;44.740;37.770;2024-01-15T02:03:47;6.05;;;1.95;;
79019;SDS011;72857;44.740;37.770;2024-01-15T02:04:49;4.88;;;2.08;;
79019;SDS011;72857;44.740;37.770;2024-01-15T02:05:51;5.85;;;2.08;;
79019;SDS011;72857;44.740;37.770;2024-01-15T02:06:53;6.53;;;2.30;;
79019;SDS011;72857;44.740;37.770;2024-01-15T02:07:55;5.10;;;1.70;;
79019;SDS011;72857;44.740;37.770;2024-01-15T02:08:57;4.60;;;1.92;;
79019;SDS011;72857;44.740;37.770;2024-01-15T02:09:59;6.50;;;1.70;;
79019;SDS011;72857;44.740;37.770;2024-01-15T02:11:00;5.47;;;1.83;;
79019;SDS011;72857;44.740;37.770;2024-01-15T02:12:02;5.07;;;2.08;;
79019;SDS011;72857;44.740;37.770;2024-01-15T02:13:03;4.25;;;2.00;;
79019;SDS011;72857;44.740;37.770;2024-01-15T02:14:05;5.85;;;1.90;;
79019;SDS011;72857;44.740;37.770;2024-01-15T02:15:07;6.35;;;2.00;;
79019;SDS011;72857;44.740;37.770;2024-01-15T02:16:09;3.70;;;1.70;;
79019;SDS011;72857;44.740;37.770;2024-01-15T02:17:10;5.65;;;2.10;;
79019;SDS011;72857;44.740;37.770;2024-01-15T02:18:12;5.38;;;1.92;;
79019;SDS011;72857;44.740;37.770;2024-01-15T02:19:16;4.75;;;1.88;;
79019;SDS011;72857;44.740;37.770;2024-01-15T02:20:18;5.57;;;1.88;;
79019;SDS011;72857;44.740;37.770;2024-01-15T02:21:20;4.07;;;1.55;;
79019;SDS011;72857;44.740;37.770;2024-01-15T02:22:22;7.13;;;2.03;;
79019;SDS011;72857;44.740;37.770;2024-01-15T02:23:23;3.70;;;1.85;;
79019;SDS011;72857;44.740;37.770;2024-01-15T02:24:24;5.28;;;1.98;;
79019;SDS011;72857;44.740;37.770;2024-01-15T02:25:26;5.45;;;2.08;;
79019;SDS011;72857;44.740;37.770;2024-01-15T02:26:27;3.97;;;2.15;;
79019;SDS011;72857;44.740;37.770;2024-01-15T02:27:29;7.22;;;2.45;;
79019;SDS011;72857;44.740;37.770;2024-01-15T02:28:31;4.05;;;2.05;;
79019;SDS011;72857;44.740;37.770;2024-01-15T02:29:33;8.27;;;2.17;;
79019;SDS011;72857;44.740;37.770;2024-01-15T02:30:38;7.13;;;2.28;;
79019;SDS011;72857;44.740;37.770;2024-01-15T02:31:41;4.20;;;2.03;;
79019;SDS011;72857;44.740;37.770;2024-01-15T02:32:43;5.43;;;2.42;;
79019;SDS011;72857;44.740;37.770;2024-01-15T02:33:44;5.57;;;1.83;;
79019;SDS011;72857;44.740;37.770;2024-01-15T02:34:49;5.85;;;2.00;;
79019;SDS011;72857;44.740;37.770;2024-01-15T02:35:50;5.43;;;2.10;;
79019;SDS011;72857;44.740;37.770;2024-01-15T02:36:52;6.03;;;2.30;;
79019;SDS011;72857;44.740;37.770;2024-01-15T02:37:53;6.10;;;2.13;;
79019;SDS011;72857;44.740;37.770;2024-01-15T02:39:13;5.07;;;2.00;;
79019;SDS011;72857;44.740;37.770;2024-01-15T02:40:14;4.93;;;1.75;;
79019;SDS011;72857;44.740;37.770;2024-01-15T02:41:53;5.07;;;2.28;;
79019;SDS011;72857;44.740;37.770;2024-01-15T02:42:57;3.85;;;1.88;;
79019;SDS011;72857;44.740;37.770;2024-01-15T02:43:58;7.50;;;1.92;;
79019;SDS011;72857;44.740;37.770;2024-01-15T02:45:00;6.57;;;2.00;;
79019;SDS011;72857;44.740;37.770;2024-01-15T02:46:20;5.88;;;2.03;;
79019;SDS011;72857;44.740;37.770;2024-01-15T02:47:21;8.68;;;2.70;;
79019;SDS011;72857;44.740;37.770;2024-01-15T02:48:23;5.40;;;2.10;;
79019;SDS011;72857;44.740;37.770;2024-01-15T02:49:24;6.97;;;2.50;;
79019;SDS011;72857;44.740;37.770;2024-01-15T02:50:26;5.20;;;2.30;;
79019;SDS011;72857;44.740;37.770;2024-01-15T02:51:27;7.50;;;2.38;;
79019;SDS011;72857;44.740;37.770;2024-01-15T02:52:29;5.97;;;2.05;;
79019;SDS011;72857;44.740;37.770;2024-01-15T02:53:31;4.68;;;2.00;;
79019;SDS011;72857;44.740;37.770;2024-01-15T02:54:32;6.15;;;2.35;;
79019;SDS011;72857;44.740;37.770;2024-01-15T02:55:34;6.05;;;2.47;;
79019;SDS011;72857;44.740;37.770;2024-01-15T02:56:35;8.05;;;2.58;;
79019;SDS011;72857;44.740;37.770;2024-01-15T02:57:36;6.38;;;2.38;;
79019;SDS011;72857;44.740;37.770;2024-01-15T02:58:38;6.03;;;2.33;;
79019;SDS011;72857;44.740;37.770;2024-01-15T02:59:39;7.50;;;2.60;;
79019;SDS011;72857;44.740;37.770;2024-01-15T03:00:41;5.15;;;2.00;;
79019;SDS011;72857;44.740;37.770;2024-01-15T03:01:43;5.22;;;2.38;;
79019;SDS011;72857;44.740;37.770;2024-01-15T03:02:45;5.65;;;2.20;;
79019;SDS011;72857;44.740;37.770;2024-01-15T03:03:46;5.28;;;2.30;;
79019;SDS011;72857;44.740;37.770;2024-01-15T03:04:47;5.65;;;2.35;;
79019;SDS011;72857;44.740;37.770;2024-01-15T03:06:07;6.28;;;2.63;;
79019;SDS011;72857;44.740;37.770;2024-01-15T03:07:09;7.47;;;2.45;;
79019;SDS011;72857;44.740;37.770;2024-01-15T03:08:10;4.45;;;2.20;;
79019;SDS011;72857;44.740;37.770;2024-01-15T03:09:11;6.13;;;2.30;;
79019;SDS011;72857;44.740;37.770;2024-01-15T03:10:13;5.55;;;2.80;;
79019;SDS011;72857;44.740;37.770;2024-01-15T03:11:14;5.38;;;2.60;;
79019;SDS011;72857;44.740;37.770;2024-01-15T03:12:16;6.43;;;2.45;;
79019;SDS011;72857;44.740;37.770;2024-01-15T03:13:17;5.57;;;2.35;;
79019;SDS011;72857;44.740;37.770;2024-01-15T03:14:20;5.70;;;2.80;;
79019;SDS011;72857;44.740;37.770;2024-01-15T03:15:21;5.47;;;2.60;;
79019;SDS011;72857;44.740;37.770;2024-01-15T03:16:22;6.82;;;2.40;;
79019;SDS011;72857;44.740;37.770;2024-01-15T03:17:24;4.97;;;2.58;;
79019;SDS011;72857;44.740;37.770;2024-01-15T03:18:26;8.18;;;2.92;;
79019;SDS011;72857;44.740;37.770;2024-01-15T03:19:27;6.25;;;2.70;;
79019;SDS011;72857;44.740;37.770;2024-01-15T03:20:47;5.60;;;2.42;;
79019;SDS011;72857;44.740;37.770;2024-01-15T03:21:48;8.43;;;2.92;;
79019;SDS011;72857;44.740;37.770;2024-01-15T03:22:50;6.80;;;3.25;;
79019;SDS011;72857;44.740;37.770;2024-01-15T03:23:51;5.68;;;2.80;;
79019;SDS011;72857;44.740;37.770;2024-01-15T03:24:53;8.32;;;3.08;;
79019;SDS011;72857;44.740;37.770;2024-01-15T03:26:13;5.53;;;2.50;;
79019;SDS011;72857;44.740;37.770;2024-01-15T03:27:14;9.57;;;2.83;;
79019;SDS011;72857;44.740;37.770;2024-01-15T03:28:53;6.90;;;2.97;;
79019;SDS011;72857;44.740;37.770;2024-01-15T03:29:54;7.45;;;3.28;;
79019;SDS011;72857;44.740;37.770;2024-01-15T03:30:56;8.18;;;3.03;;
79019;SDS011;72857;44.740;37.770;2024-01-15T03:31:57;7.30;;;3.50;;
79019;SDS011;72857;44.740;37.770;2024-01-15T03:32:58;8.10;;;3.65;;
79019;SDS011;72857;44.740;37.770;2024-01-15T03:34:19;9.10;;;3.60;;
79019;SDS011;72857;44.740;37.770;2024-01-15T03:35:20;5.95;;;3.38;;
79019;SDS011;72857;44.740;37.770;2024-01-15T03:36:22;11.13;;;3.45;;
79019;SDS011;72857;44.740;37.770;2024-01-15T03:37:24;10.15;;;4.40;;
79019;SDS011;72857;44.740;37.770;2024-01-15T03:38:27;12.00;;;3.55;;
79019;SDS011;72857;44.740;37.770;2024-01-15T03:39:29;9.05;;;3.90;;
79019;SDS011;72857;44.740;37.770;2024-01-15T03:40:31;9.60;;;3.80;;
79019;SDS011;72857;44.740;37.770;2024-01-15T03:41:32;8.23;;;3.65;;
79019;SDS011;72857;44.740;37.770;2024-01-15T03:42:33;7.95;;;3.50;;
79019;SDS011;72857;44.740;37.770;2024-01-15T03:43:35;8.80;;;3.20;;
79019;SDS011;72857;44.740;37.770;2024-01-15T03:44:36;6.50;;;3.53;;
79019;SDS011;72857;44.740;37.770;2024-01-15T03:45:38;8.98;;;4.05;;
79019;SDS011;72857;44.740;37.770;2024-01-15T03:46:39;6.68;;;3.90;;
79019;SDS011;72857;44.740;37.770;2024-01-15T03:47:41;7.82;;;4.22;;
79019;SDS011;72857;44.740;37.770;2024-01-15T03:48:42;6.63;;;3.20;;
79019;SDS011;72857;44.740;37.770;2024-01-15T03:49:44;8.23;;;3.85;;
79019;SDS011;72857;44.740;37.770;2024-01-15T03:50:45;8.88;;;4.50;;
79019;SDS011;72857;44.740;37.770;2024-01-15T03:51:46;7.97;;;3.20;;
79019;SDS011;72857;44.740;37.770;2024-01-15T03:52:48;7.97;;;3.90;;
79019;SDS011;72857;44.740;37.770;2024-01-15T03:55:28;9.65;;;3.45;;
79019;SDS011;72857;44.740;37.770;2024-01-15T03:56:29;8.82;;;3.97;;
79019;SDS011;72857;44.740;37.770;2024-01-15T03:57:31;8.63;;;3.75;;
79019;SDS011;72857;44.740;37.770;2024-01-15T03:58:32;8.40;;;3.60;;
79019;SDS011;72857;44.740;37.770;2024-01-15T03:59:34;11.63;;;4.15;;
79019;SDS011;72857;44.740;37.770;2024-01-15T04:00:35;5.93;;;3.30;;
79019;SDS011;72857;44.740;37.770;2024-01-15T04:01:37;8.52;;;3.92;;
79019;SDS011;72857;44.740;37.770;2024-01-15T04:02:57;7.22;;;3.28;;
79019;SDS011;72857;44.740;37.770;2024-01-15T04:03:58;8.02;;;3.20;;
79019;SDS011;72857;44.740;37.770;2024-01-15T04:04:59;9.82;;;3.33;;
79019;SDS011;72857;44.740;37.770;2024-01-15T04:06:01;6.18;;;3.58;;
79019;SDS011;72857;44.740;37.770;2024-01-15T04:07:03;9.27;;;3.85;;
79019;SDS011;72857;44.740;37.770;2024-01-15T04:08:04;10.10;;;3.47;;
79019;SDS011;72857;44.740;37.770;2024-01-15T04:09:06;7.63;;;3.42;;
79019;SDS011;72857;44.740;37.770;2024-01-15T04:10:07;8.70;;;3.60;;
79019;SDS011;72857;44.740;37.770;2024-01-15T04:11:09;8.38;;;3.53;;
79019;SDS011;72857;44.740;37.770;2024-01-15T04:12:10;7.43;;;3.75;;
79019;SDS011;72857;44.740;37.770;2024-01-15T04:13:12;6.10;;;3.78;;
79019;SDS011;72857;44.740;37.770;2024-01-15T04:14:14;8.82;;;3.47;;
79019;SDS011;72857;44.740;37.770;2024-01-15T04:15:15;9.05;;;4.22;;
79019;SDS011;72857;44.740;37.770;2024-01-15T04:16:17;9.20;;;4.05;;
79019;SDS011;72857;44.740;37.770;2024-01-15T04:17:18;9.23;;;3.33;;
79019;SDS011;72857;44.740;37.770;2024-01-15T04:18:20;8.30;;;3.20;;
79019;SDS011;72857;44.740;37.770;2024-01-15T04:19:22;6.72;;;3.67;;
79019;SDS011;72857;44.740;37.770;2024-01-15T04:20:42;7.93;;;2.88;;
79019;SDS011;72857;44.740;37.770;2024-01-15T04:23:03;9.10;;;3.85;;
79019;SDS011;72857;44.740;37.770;2024-01-15T04:24:05;7.85;;;3.85;;
79019;SDS011;72857;44.740;37.770;2024-01-15T04:25:07;9.80;;;3.97;;
79019;SDS011;72857;44.740;37.770;2024-01-15T04:26:08;7.22;;;2.83;;
79019;SDS011;72857;44.740;37.770;2024-01-15T04:27:10;8.43;;;2.85;;
79019;SDS011;72857;44.740;37.770;2024-01-15T04:28:11;5.25;;;2.88;;
79019;SDS011;72857;44.740;37.770;2024-01-15T04:29:13;9.63;;;3.20;;
79019;SDS011;72857;44.740;37.770;2024-01-15T04:30:15;5.35;;;2.45;;
79019;SDS011;72857;44.740;37.770;2024-01-15T04:31:23;5.90;;;2.42;;
79019;SDS011;72857;44.740;37.770;2024-01-15T04:32:25;9.35;;;3.08;;
79019;SDS011;72857;44.740;37.770;2024-01-15T04:33:27;6.05;;;3.10;;
79019;SDS011;72857;44.740;37.770;2024-01-15T04:34:28;6.43;;;3.03;;
79019;SDS011;72857;44.740;37.770;2024-01-15T04:35:30;5.70;;;2.83;;
79019;SDS011;72857;44.740;37.770;2024-01-15T04:36:37;5.78;;;3.20;;
79019;SDS011;72857;44.740;37.770;2024-01-15T04:37:58;6.15;;;2.75;;
79019;SDS011;72857;44.740;37.770;2024-01-15T04:39:00;5.45;;;3.47;;
79019;SDS011;72857;44.740;37.770;2024-01-15T04:40:02;6.25;;;2.63;;
79019;SDS011;72857;44.740;37.770;2024-01-15T04:41:05;6.20;;;2.95;;
79019;SDS011;72857;44.740;37.770;2024-01-15T04:42:25;5.55;;;2.65;;
79019;SDS011;72857;44.740;37.770;2024-01-15T04:43:27;5.72;;;2.92;;
79019;SDS011;72857;44.740;37.770;2024-01-15T04:44:28;12.35;;;2.92;;
79019;SDS011;72857;44.740;37.770;2024-01-15T04:45:30;9.63;;;2.55;;
79019;SDS011;72857;44.740;37.770;2024-01-15T04:46:32;5.35;;;2.67;;
79019;SDS011;72857;44.740;37.770;2024-01-15T04:47:34;6.00;;;2.80;;
79019;SDS011;72857;44.740;37.770;2024-01-15T04:48:54;6.47;;;2.70;;
79019;SDS011;72857;44.740;37.770;2024-01-15T04:49:55;7.85;;;3.13;;
79019;SDS011;72857;44.740;37.770;2024-01-15T04:51:16;20.58;;;3.40;;
79019;SDS011;72857;44.740;37.770;2024-01-15T04:52:17;12.48;;;3.88;;
79019;SDS011;72857;44.740;37.770;2024-01-15T04:53:19;17.38;;;3.58;;
79019;SDS011;72857;44.740;37.770;2024-01-15T04:54:21;17.92;;;3.17;;
79019;SDS011;72857;44.740;37.770;2024-01-15T04:55:23;8.07;;;3.33;;
79019;SDS011;72857;44.740;37.770;2024-01-15T04:56:24;16.80;;;3.85;;
79019;SDS011;72857;44.740;37.770;2024-01-15T04:57:26;24.42;;;4.07;;
79019;SDS011;72857;44.740;37.770;2024-01-15T04:58:28;17.42;;;4.03;;
79019;SDS011;72857;44.740;37.770;2024-01-15T04:59:30;12.38;;;3.50;;
79019;SDS011;72857;44.740;37.770;2024-01-15T05:00:32;13.13;;;4.30;;
79019;SDS011;72857;44.740;37.770;2024-01-15T05:01:33;7.80;;;3.50;;
79019;SDS011;72857;44.740;37.770;2024-01-15T05:02:35;9.20;;;3.83;;
79019;SDS011;72857;44.740;37.770;2024-01-15T05:03:37;15.70;;;3.80;;
79019;SDS011;72857;44.740;37.770;2024-01-15T05:04:39;13.02;;;4.28;;
79019;SDS011;72857;44.740;37.770;2024-01-15T05:05:40;11.75;;;3.67;;
79019;SDS011;72857;44.740;37.770;2024-01-15T05:06:42;9.75;;;3.38;;
79019;SDS011;72857;44.740;37.770;2024-01-15T05:07:44;7.45;;;3.40;;
79019;SDS011;72857;44.740;37.770;2024-01-15T05:08:46;11.82;;;4.18;;
79019;SDS011;72857;44.740;37.770;2024-01-15T05:09:48;10.45;;;3.67;;
79019;SDS011;72857;44.740;37.770;2024-01-15T05:10:50;8.48;;;3.33;;
79019;SDS011;72857;44.740;37.770;2024-01-15T05:11:52;10.23;;;4.72;;
79019;SDS011;72857;44.740;37.770;2024-01-15T05:12:53;8.68;;;4.35;;
79019;SDS011;72857;44.740;37.770;2024-01-15T05:13:55;12.30;;;4.15;;
79019;SDS011;72857;44.740;37.770;2024-01-15T05:14:57;9.82;;;3.60;;
79019;SDS011;72857;44.740;37.770;2024-01-15T05:16:00;11.82;;;4.47;;
79019;SDS011;72857;44.740;37.770;2024-01-15T05:17:01;13.48;;;5.85;;
79019;SDS011;72857;44.740;37.770;2024-01-15T05:18:03;19.50;;;16.70;;
79019;SDS011;72857;44.740;37.770;2024-01-15T05:19:23;17.90;;;10.10;;
79019;SDS011;72857;44.740;37.770;2024-01-15T05:20:25;13.23;;;6.72;;
79019;SDS011;72857;44.740;37.770;2024-01-15T05:21:27;11.00;;;4.93;;
79019;SDS011;72857;44.740;37.770;2024-01-15T05:22:28;9.23;;;4.55;;
79019;SDS011;72857;44.740;37.770;2024-01-15T05:23:33;13.52;;;5.53;;
79019;SDS011;72857;44.740;37.770;2024-01-15T05:24:35;14.43;;;4.75;;
79019;SDS011;72857;44.740;37.770;2024-01-15T05:25:37;20.55;;;5.53;;
79019;SDS011;72857;44.740;37.770;2024-01-15T05:26:38;12.23;;;5.55;;
79019;SDS011;72857;44.740;37.770;2024-01-15T05:27:40;9.18;;;5.22;;
79019;SDS011;72857;44.740;37.770;2024-01-15T05:28:42;12.30;;;5.72;;
79019;SDS011;72857;44.740;37.770;2024-01-15T05:29:43;20.73;;;6.85;;
79019;SDS011;72857;44.740;37.770;2024-01-15T05:31:05;17.20;;;5.32;;
79019;SDS011;72857;44.740;37.770;2024-01-15T05:32:07;10.90;;;5.20;;
79019;SDS011;72857;44.740;37.770;2024-01-15T05:33:08;11.07;;;5.50;;
79019;SDS011;72857;44.740;37.770;2024-01-15T05:34:10;16.23;;;6.35;;
79019;SDS011;72857;44.740;37.770;2024-01-15T05:35:11;11.60;;;5.47;;
79019;SDS011;72857;44.740;37.770;2024-01-15T05:36:13;16.73;;;6.03;;
79019;SDS011;72857;44.740;37.770;2024-01-15T05:37:14;16.20;;;6.30;;
79019;SDS011;72857;44.740;37.770;2024-01-15T05:38:34;13.10;;;5.88;;
79019;SDS011;72857;44.740;37.770;2024-01-15T05:39:54;11.43;;;5.53;;
79019;SDS011;72857;44.740;37.770;2024-01-15T05:40:56;12.07;;;5.15;;
79019;SDS011;72857;44.740;37.770;2024-01-15T05:41:58;11.05;;;5.60;;
79019;SDS011;72857;44.740;37.770;2024-01-15T05:43:00;13.82;;;5.53;;
79019;SDS011;72857;44.740;37.770;2024-01-15T05:44:02;17.63;;;6.72;;
79019;SDS011;72857;44.740;37.770;2024-01-15T05:45:22;12.40;;;5.60;;
79019;SDS011;72857;44.740;37.770;2024-01-15T05:47:43;11.50;;;5.50;;
79019;SDS011;72857;44.740;37.770;2024-01-15T05:48:45;13.57;;;5.70;;
79019;SDS011;72857;44.740;37.770;2024-01-15T05:50:05;14.10;;;5.68;;
79019;SDS011;72857;44.740;37.770;2024-01-15T05:51:07;11.63;;;5.15;;
79019;SDS011;72857;44.740;37.770;2024-01-15T05:52:09;17.92;;;5.80;;
79019;SDS011;72857;44.740;37.770;2024-01-15T05:54:51;18.08;;;6.35;;
79019;SDS011;72857;44.740;37.770;2024-01-15T05:55:53;23.63;;;13.63;;
79019;SDS011;72857;44.740;37.770;2024-01-15T05:56:56;15.43;;;7.63;;
79019;SDS011;72857;44.740;37.770;2024-01-15T05:57:58;15.82;;;6.57;;
79019;SDS011;72857;44.740;37.770;2024-01-15T05:58:59;17.92;;;5.95;;
79019;SDS011;72857;44.740;37.770;2024-01-15T06:00:19;18.05;;;6.75;;
79019;SDS011;72857;44.740;37.770;2024-01-15T06:01:21;14.80;;;6.68;;
79019;SDS011;72857;44.740;37.770;2024-01-15T06:02:22;17.15;;;6.70;;
79019;SDS011;72857;44.740;37.770;2024-01-15T06:03:24;17.65;;;6.30;;
79019;SDS011;72857;44.740;37.770;2024-01-15T06:04:25;21.67;;;7.07;;
79019;SDS011;72857;44.740;37.770;2024-01-15T06:05:26;14.70;;;6.07;;
79019;SDS011;72857;44.740;37.770;2024-01-15T06:06:28;12.40;;;5.85;;
79019;SDS011;72857;44.740;37.770;2024-01-15T06:07:29;15.82;;;6.70;;
79019;SDS011;72857;44.740;37.770;2024-01-15T06:08:31;19.35;;;6.63;;
79019;SDS011;72857;44.740;37.770;2024-01-15T06:09:32;12.60;;;7.13;;
79019;SDS011;72857;44.740;37.770;2024-01-15T06:10:34;16.45;;;6.55;;
79019;SDS011;72857;44.740;37.770;2024-01-15T06:11:35;12.80;;;6.93;;
79019;SDS011;72857;44.740;37.770;2024-01-15T06:12:37;13.85;;;6.30;;
79019;SDS011;72857;44.740;37.770;2024-01-15T06:13:38;14.75;;;7.38;;
79019;SDS011;72857;44.740;37.770;2024-01-15T06:14:40;16.58;;;5.97;;
79019;SDS011;72857;44.740;37.770;2024-01-15T06:15:42;19.20;;;7.22;;
79019;SDS011;72857;44.740;37.770;2024-01-15T06:16:44;15.30;;;6.82;;
79019;SDS011;72857;44.740;37.770;2024-01-15T06:17:45;18.38;;;6.35;;
79019;SDS011;72857;44.740;37.770;2024-01-15T06:18:46;15.15;;;6.90;;
79019;SDS011;72857;44.740;37.770;2024-01-15T06:19:48;15.18;;;5.40;;
79019;SDS011;72857;44.740;37.770;2024-01-15T06:21:08;14.02;;;5.35;;
79019;SDS011;72857;44.740;37.770;2024-01-15T06:22:11;16.92;;;5.43;;
79019;SDS011;72857;44.740;37.770;2024-01-15T06:23:31;12.88;;;5.57;;
79019;SDS011;72857;44.740;37.770;2024-01-15T06:24:32;16.88;;;6.18;;
79019;SDS011;72857;44.740;37.770;2024-01-15T06:25:34;10.30;;;5.13;;
79019;SDS011;72857;44.740;37.770;2024-01-15T06:26:36;12.55;;;5.88;;
79019;SDS011;72857;44.740;37.770;2024-01-15T06:27:37;13.07;;;5.57;;
79019;SDS011;72857;44.740;37.770;2024-01-15T06:28:57;11.27;;;4.68;;